Time;durP1;ratioP1;P1;durP2;ratioP2;P2;SDS_P1;SDS_P2;PMS_P1;PMS_P2;Temp;Humidity;BMP_temperature;BMP_pressure;BME280_temperature;BME280_humidity;BME280_pressure;Samples;Min_cycle;Max_cycle;Signal;HPM_P1;HPM_P2
2022/12/02 00:02:33;;;;;;;18.20;8.38;;;8.00;71.90;;;;;;2341255;53;20944;-72
2022/12/02 00:05:54;;;;;;;17.25;8.85;;;8.00;71.90;;;;;;2342848;53;20915;-72
2022/12/02 00:08:24;;;;;;;16.55;7.60;;;8.00;72.00;;;;;;2345978;53;20961;-72
2022/12/02 00:10:52;;;;;;;15.18;7.75;;;8.00;72.00;;;;;;2344231;53;20974;-73
2022/12/02 00:15:56;;;;;;;18.85;8.70;;;8.00;72.10;;;;;;2341182;53;20957;-75
2022/12/02 00:18:22;;;;;;;15.30;7.37;;;8.00;71.50;;;;;;2343212;53;20983;-72
2022/12/02 00:20:49;;;;;;;17.02;8.30;;;8.00;72.20;;;;;;2357728;53;21817;-73
2022/12/02 00:23:16;;;;;;;18.95;8.43;;;8.00;72.20;;;;;;2342755;53;20988;-72
2022/12/02 00:25:47;;;;;;;17.85;8.77;;;8.00;72.40;;;;;;2343434;53;21678;-72
2022/12/02 00:28:15;;;;;;;19.10;8.50;;;8.00;72.40;;;;;;2343812;53;20998;-74
2022/12/02 00:30:41;;;;;;;18.92;8.52;;;8.00;72.40;;;;;;2616023;52;21733;-72
2022/12/02 00:33:08;;;;;;;17.40;9.02;;;8.00;72.30;;;;;;2366073;53;20946;-74
2022/12/02 00:35:35;;;;;;;18.30;8.75;;;8.00;72.30;;;;;;2616800;52;20995;-75
2022/12/02 00:38:02;;;;;;;20.40;10.27;;;8.00;72.30;;;;;;2423653;52;20994;-75
2022/12/02 00:40:28;;;;;;;18.92;9.50;;;8.00;72.40;;;;;;2600983;52;21396;-73
2022/12/02 00:48:34;;;;;;;19.42;9.23;;;8.00;72.50;;;;;;2343035;54;20944;-72
2022/12/02 00:51:02;;;;;;;20.62;9.75;;;8.00;72.50;;;;;;2493104;53;20909;-75
2022/12/02 00:53:29;;;;;;;18.92;8.70;;;8.00;72.50;;;;;;2341905;54;20905;-72
2022/12/02 00:55:56;;;;;;;19.37;8.73;;;8.00;72.50;;;;;;2559093;53;21424;-76
2022/12/02 00:58:23;;;;;;;18.70;9.27;;;8.00;72.60;;;;;;2441017;53;20938;-76
2022/12/02 01:00:49;;;;;;;16.48;8.27;;;8.00;72.60;;;;;;2329610;53;21329;-76
2022/12/02 01:03:16;;;;;;;17.52;7.97;;;8.00;72.60;;;;;;2446013;53;20911;-74
2022/12/02 01:05:43;;;;;;;19.25;8.85;;;8.00;72.70;;;;;;2588967;53;20920;-75
2022/12/02 01:08:10;;;;;;;21.27;9.70;;;8.00;72.70;;;;;;2342643;53;20937;-72
2022/12/02 01:10:36;;;;;;;21.55;9.95;;;8.00;72.80;;;;;;2589314;53;20932;-72
2022/12/02 01:13:02;;;;;;;18.70;9.15;;;8.00;72.80;;;;;;2508415;53;20988;-73
2022/12/02 01:15:29;;;;;;;23.52;10.73;;;8.00;72.90;;;;;;2588691;53;20937;-75
2022/12/02 01:17:55;;;;;;;21.12;10.00;;;8.10;72.90;;;;;;2343002;53;21033;-76
2022/12/02 01:20:22;;;;;;;20.75;9.98;;;8.00;72.70;;;;;;2383480;53;20928;-75
2022/12/02 01:22:49;;;;;;;18.42;8.77;;;8.10;72.70;;;;;;2452256;53;20941;-76
2022/12/02 01:25:19;;;;;;;20.45;9.23;;;8.10;72.80;;;;;;2481219;53;20945;-74
2022/12/02 01:27:45;;;;;;;21.58;9.70;;;8.10;72.80;;;;;;2367657;54;20936;-73
2022/12/02 01:30:13;;;;;;;16.42;8.40;;;8.10;72.90;;;;;;2369830;53;20964;-71
2022/12/02 01:32:40;;;;;;;19.73;9.77;;;8.10;73.00;;;;;;2512555;52;20996;-73
2022/12/02 01:35:08;;;;;;;20.55;8.95;;;8.10;72.90;;;;;;2370715;53;20945;-73
2022/12/02 01:37:35;;;;;;;19.92;9.88;;;8.10;72.90;;;;;;2370367;54;20956;-76
2022/12/02 01:40:03;;;;;;;19.02;9.23;;;8.10;72.80;;;;;;2371068;54;21028;-73
2022/12/02 01:42:29;;;;;;;19.85;8.90;;;8.20;72.80;;;;;;2623043;52;20913;-74
2022/12/02 01:44:56;;;;;;;19.15;9.18;;;8.20;72.80;;;;;;2407171;52;20912;-73
2022/12/02 01:47:22;;;;;;;19.23;8.32;;;8.20;72.80;;;;;;2623557;52;20930;-73
2022/12/02 01:49:49;;;;;;;18.10;8.40;;;8.20;72.90;;;;;;2370939;54;21000;-72
2022/12/02 01:52:17;;;;;;;21.27;9.70;;;8.20;72.90;;;;;;2589849;52;20981;-74
2022/12/02 01:54:44;;;;;;;17.67;8.98;;;8.20;72.90;;;;;;2342808;53;20916;-76
2022/12/02 01:57:11;;;;;;;20.05;9.80;;;8.20;73.50;;;;;;2342939;53;20910;-72
2022/12/02 01:59:37;;;;;;;18.87;9.18;;;8.20;72.80;;;;;;2342554;54;20968;-75
2022/12/02 02:02:40;;;;;;;19.73;9.73;;;8.20;72.80;;;;;;2589511;53;21003;-74
2022/12/02 02:05:18;;;;;;;19.62;8.88;;;8.20;72.40;;;;;;2342913;54;21393;-72
2022/12/02 02:07:46;;;;;;;23.48;10.10;;;8.20;72.40;;;;;;2342388;53;21014;-74
2022/12/02 02:10:13;;;;;;;20.48;9.45;;;8.20;72.40;;;;;;2589614;52;21782;-72
2022/12/02 02:12:40;;;;;;;19.77;9.48;;;8.20;72.40;;;;;;2342554;53;21018;-74
2022/12/02 02:15:08;;;;;;;20.77;9.43;;;8.20;72.30;;;;;;2351052;53;21569;-73
2022/12/02 02:17:34;;;;;;;22.62;9.50;;;8.20;72.30;;;;;;2370660;54;20988;-74
2022/12/02 02:20:01;;;;;;;22.25;10.05;;;8.20;72.40;;;;;;2557271;52;21711;-76
2022/12/02 02:22:37;;;;;;;25.08;10.60;;;8.20;72.40;;;;;;2370661;53;20909;-76
2022/12/02 02:25:11;;;;;;;22.50;10.25;;;8.20;72.20;;;;;;2370959;54;20976;-76
2022/12/02 02:27:43;;;;;;;21.35;10.27;;;8.20;72.20;;;;;;2622894;52;20940;-75
2022/12/02 02:30:10;;;;;;;24.20;10.38;;;8.20;72.30;;;;;;2370763;53;20944;-76
2022/12/02 02:32:37;;;;;;;25.27;11.23;;;8.10;72.30;;;;;;2380416;52;21017;-71
2022/12/02 02:35:04;;;;;;;24.20;10.90;;;8.20;72.40;;;;;;2370776;54;21482;-74
2022/12/02 02:37:32;;;;;;;22.85;10.52;;;8.10;72.40;;;;;;2369980;54;21790;-74
2022/12/02 02:39:58;;;;;;;21.25;9.93;;;8.10;72.40;;;;;;2370680;53;21013;-73
2022/12/02 02:42:24;;;;;;;24.02;10.52;;;8.10;72.50;;;;;;2361948;53;20900;-71
2022/12/02 02:44:51;;;;;;;22.62;10.82;;;8.10;72.50;;;;;;2358998;53;20952;-75
2022/12/02 02:47:17;;;;;;;24.55;10.93;;;8.10;72.40;;;;;;2370201;54;20925;-75
2022/12/02 02:49:44;;;;;;;23.52;10.32;;;8.10;72.40;;;;;;2370365;53;21023;-74
2022/12/02 02:52:10;;;;;;;23.50;10.38;;;8.10;72.40;;;;;;2447093;52;21527;-72
2022/12/02 02:54:36;;;;;;;21.23;10.13;;;8.10;72.40;;;;;;2370575;54;20913;-73
2022/12/02 02:57:03;;;;;;;21.50;9.98;;;8.10;72.50;;;;;;2370604;53;21048;-76
2022/12/02 02:59:29;;;;;;;20.80;10.02;;;8.10;72.50;;;;;;2370163;54;20937;-74
2022/12/02 03:01:56;;;;;;;19.23;9.05;;;8.10;72.60;;;;;;2369655;54;22046;-74
2022/12/02 03:04:22;;;;;;;19.62;8.82;;;8.10;72.70;;;;;;2370803;53;20988;-76
2022/12/02 03:06:49;;;;;;;23.50;10.30;;;8.10;72.80;;;;;;2341911;53;21764;-76
2022/12/02 03:09:16;;;;;;;20.65;9.48;;;8.20;72.80;;;;;;2342938;53;20960;-75
2022/12/02 03:11:43;;;;;;;20.50;8.88;;;8.10;72.80;;;;;;2340243;53;21974;-72
2022/12/02 03:14:09;;;;;;;21.45;9.35;;;8.10;72.70;;;;;;2340279;53;21742;-73
2022/12/02 03:16:38;;;;;;;25.10;9.88;;;8.10;72.60;;;;;;2429292;54;21489;-72
2022/12/02 03:19:04;;;;;;;20.77;9.38;;;8.20;72.70;;;;;;2439745;53;20984;-73
2022/12/02 03:21:32;;;;;;;20.48;8.88;;;8.10;72.60;;;;;;2502543;53;20984;-75
2022/12/02 03:23:59;;;;;;;20.17;9.65;;;8.20;72.70;;;;;;2456827;53;21376;-72
2022/12/02 03:26:27;;;;;;;21.80;9.40;;;8.20;72.70;;;;;;2410866;53;21022;-73
2022/12/02 03:28:54;;;;;;;20.55;9.43;;;8.20;72.70;;;;;;2342734;53;20966;-74
2022/12/02 03:31:20;;;;;;;21.58;9.35;;;8.20;72.70;;;;;;2349636;54;20921;-76
2022/12/02 03:33:46;;;;;;;24.60;10.25;;;8.20;72.70;;;;;;2451843;52;4276322;-73
2022/12/02 03:36:13;;;;;;;24.10;9.88;;;8.20;72.60;;;;;;2486201;52;21650;-76
2022/12/02 03:38:39;;;;;;;24.33;10.45;;;8.20;72.60;;;;;;2370253;54;20946;-76
2022/12/02 03:41:05;;;;;;;21.52;10.18;;;8.20;72.60;;;;;;2442290;52;20959;-74
2022/12/02 03:43:32;;;;;;;28.00;11.32;;;8.20;72.50;;;;;;2360767;53;20921;-74
2022/12/02 03:45:59;;;;;;;24.60;10.55;;;8.20;72.40;;;;;;2622961;52;21057;-76
2022/12/02 03:48:25;;;;;;;25.62;11.75;;;8.20;72.40;;;;;;2370809;54;20946;-74
2022/12/02 03:50:52;;;;;;;29.45;12.55;;;8.20;72.40;;;;;;2481867;52;20914;-71
2022/12/02 03:53:20;;;;;;;24.58;10.60;;;8.20;72.40;;;;;;2370768;54;21876;-74
2022/12/02 03:55:47;;;;;;;24.77;11.35;;;8.20;72.30;;;;;;2410260;52;20941;-74
2022/12/02 03:58:13;;;;;;;26.00;11.15;;;8.10;72.20;;;;;;2370523;54;20935;-73
2022/12/02 04:00:40;;;;;;;34.28;11.35;;;8.10;72.20;;;;;;2520173;52;21355;-76
2022/12/02 04:03:07;;;;;;;26.98;11.10;;;8.10;72.30;;;;;;2446533;52;21105;-73
2022/12/02 04:05:34;;;;;;;23.55;9.27;;;8.10;72.20;;;;;;2622426;52;20902;-74
2022/12/02 04:08:00;;;;;;;26.27;11.85;;;8.10;72.30;;;;;;2370444;54;20982;-73
2022/12/02 04:10:27;;;;;;;23.80;11.30;;;8.10;73.10;;;;;;2462499;52;21545;-73
2022/12/02 04:12:53;;;;;;;28.70;11.98;;;8.10;72.30;;;;;;2350595;53;20947;-74
2022/12/02 04:15:20;;;;;;;21.05;10.07;;;8.10;72.30;;;;;;2370391;53;20966;-74
2022/12/02 04:17:46;;;;;;;28.15;12.43;;;8.10;72.40;;;;;;2370695;53;20973;-73
2022/12/02 04:20:13;;;;;;;27.10;12.45;;;8.10;72.40;;;;;;2435051;52;20954;-75
2022/12/02 04:22:39;;;;;;;32.38;12.68;;;8.10;72.40;;;;;;2598558;52;21014;-72
2022/12/02 04:25:08;;;;;;;26.58;11.57;;;8.10;72.40;;;;;;2440888;52;20926;-75
2022/12/02 04:27:35;;;;;;;24.23;10.50;;;8.10;72.40;;;;;;2622856;52;20990;-73
2022/12/02 04:30:01;;;;;;;26.48;11.25;;;8.10;72.40;;;;;;2484754;52;20914;-74
2022/12/02 04:32:28;;;;;;;26.05;11.25;;;8.10;72.40;;;;;;2370447;54;20954;-73
2022/12/02 04:34:54;;;;;;;24.92;11.23;;;8.10;72.40;;;;;;2370949;54;20974;-71
2022/12/02 04:37:21;;;;;;;28.35;11.75;;;8.00;72.30;;;;;;2370589;53;20953;-76
2022/12/02 04:39:48;;;;;;;29.33;12.00;;;8.10;72.50;;;;;;2623291;52;21268;-73
2022/12/02 04:42:14;;;;;;;28.15;12.18;;;8.10;72.50;;;;;;2370189;54;20946;-76
2022/12/02 04:44:43;;;;;;;28.50;11.70;;;8.00;72.40;;;;;;2444035;52;20934;-76
2022/12/02 04:47:09;;;;;;;33.58;12.20;;;8.00;72.40;;;;;;2370706;54;20997;-75
2022/12/02 04:49:36;;;;;;;27.05;11.32;;;8.00;72.30;;;;;;2370683;54;20918;-75
2022/12/02 04:52:02;;;;;;;31.02;12.63;;;8.00;72.30;;;;;;2370996;54;21053;-74
2022/12/02 04:54:29;;;;;;;27.55;11.98;;;8.00;72.30;;;;;;2370827;54;20954;-73
2022/12/02 04:56:55;;;;;;;25.98;11.98;;;8.00;72.30;;;;;;2370969;54;20965;-73
2022/12/02 04:59:23;;;;;;;28.42;12.18;;;8.00;72.30;;;;;;2523755;52;21006;-74
2022/12/02 05:01:51;;;;;;;23.35;10.10;;;8.00;72.30;;;;;;2370796;53;20930;-73
2022/12/02 05:04:19;;;;;;;25.05;9.88;;;8.00;72.40;;;;;;2623186;52;20902;-76
2022/12/02 05:06:45;;;;;;;27.10;11.80;;;8.00;72.60;;;;;;2370296;53;21022;-75
2022/12/02 05:09:12;;;;;;;26.75;11.30;;;8.00;72.60;;;;;;2543050;52;20945;-72
2022/12/02 05:11:39;;;;;;;23.30;10.13;;;8.00;72.70;;;;;;2370130;54;20930;-72
2022/12/02 05:14:07;;;;;;;25.60;10.30;;;8.00;72.70;;;;;;2524112;52;20989;-74
2022/12/02 05:16:33;;;;;;;26.37;10.10;;;8.00;72.80;;;;;;2370628;54;20985;-73
2022/12/02 05:19:00;;;;;;;23.52;9.43;;;8.00;72.70;;;;;;2623357;52;20938;-74
2022/12/02 05:21:27;;;;;;;22.05;9.32;;;8.00;72.70;;;;;;2536714;52;21416;-76
2022/12/02 05:23:59;;;;;;;26.60;10.20;;;8.00;72.80;;;;;;2347307;54;20986;-75
2022/12/02 05:26:27;;;;;;;25.95;9.90;;;8.10;72.80;;;;;;2370741;53;20922;-74
2022/12/02 05:28:53;;;;;;;28.35;10.13;;;8.10;73.00;;;;;;2623476;52;20938;-73
2022/12/02 05:31:19;;;;;;;26.70;11.15;;;8.10;73.00;;;;;;2371159;54;20985;-76
2022/12/02 05:33:46;;;;;;;24.08;9.80;;;8.10;73.00;;;;;;2379118;52;20914;-76
2022/12/02 05:36:13;;;;;;;24.37;10.45;;;8.10;73.10;;;;;;2370560;53;21018;-75
2022/12/02 05:38:40;;;;;;;26.62;10.57;;;8.10;72.90;;;;;;2370540;54;20926;-75
2022/12/02 05:41:06;;;;;;;25.20;11.12;;;8.10;72.80;;;;;;2370121;54;21001;-74
2022/12/02 05:43:39;;;;;;;30.80;11.85;;;8.10;72.60;;;;;;2614923;52;21003;-74
2022/12/02 05:46:16;;;;;;;26.98;10.98;;;8.20;72.50;;;;;;2352199;54;21646;-76
2022/12/02 05:48:45;;;;;;;24.67;10.18;;;8.10;72.30;;;;;;2606449;52;21489;-74
2022/12/02 05:51:12;;;;;;;27.87;11.35;;;8.10;72.40;;;;;;2354044;53;20975;-73
2022/12/02 05:53:40;;;;;;;26.48;11.38;;;8.10;72.40;;;;;;2361679;53;20962;-76
2022/12/02 05:56:11;;;;;;;28.92;11.77;;;8.10;72.40;;;;;;2359902;53;20983;-74
2022/12/02 05:58:39;;;;;;;23.58;10.63;;;8.10;72.40;;;;;;2433865;53;20954;-76
2022/12/02 06:01:18;;;;;;;31.52;11.25;;;8.10;72.40;;;;;;2370961;54;21009;-74
2022/12/02 06:03:45;;;;;;;21.37;9.27;;;8.10;72.30;;;;;;2423982;52;21054;-74
2022/12/02 06:06:11;;;;;;;24.40;9.88;;;8.10;72.60;;;;;;2370243;53;20930;-75
2022/12/02 06:08:40;;;;;;;26.48;10.82;;;8.10;72.60;;;;;;2438904;52;21021;-72
2022/12/02 06:11:49;;;;;;;26.27;10.70;;;8.10;72.60;;;;;;2370503;53;20953;-74
2022/12/02 06:14:18;;;;;;;25.05;9.88;;;8.10;72.20;;;;;;2459811;52;21465;-74
2022/12/02 06:16:48;;;;;;;24.17;10.15;;;8.10;72.60;;;;;;2418865;53;21809;-75
2022/12/02 06:19:56;;;;;;;28.23;10.10;;;8.10;72.50;;;;;;2590776;52;21458;-75
2022/12/02 06:22:35;;;;;;;26.92;10.10;;;8.10;72.40;;;;;;2595402;52;21784;-74
2022/12/02 06:25:07;;;;;;;28.23;11.02;;;8.10;72.50;;;;;;2504621;52;21020;-76
2022/12/02 06:27:38;;;;;;;26.40;11.02;;;8.10;72.40;;;;;;2370657;54;22059;-75
2022/12/02 06:30:06;;;;;;;26.52;11.38;;;8.10;72.50;;;;;;2623152;52;20893;-73
2022/12/02 06:32:49;;;;;;;23.40;10.00;;;8.10;72.50;;;;;;2370452;54;21497;-75
2022/12/02 06:35:20;;;;;;;28.23;10.50;;;8.10;72.40;;;;;;2622929;52;20986;-75
2022/12/02 06:37:46;;;;;;;24.58;10.02;;;8.10;72.60;;;;;;2370217;54;20986;-73
2022/12/02 06:40:24;;;;;;;25.42;10.05;;;8.10;72.70;;;;;;2370432;54;20942;-73
2022/12/02 06:42:56;;;;;;;25.60;9.97;;;8.10;72.40;;;;;;2371011;53;21049;-75
2022/12/02 06:45:30;;;;;;;21.15;9.00;;;8.10;72.50;;;;;;2434703;53;20985;-76
2022/12/02 06:48:15;;;;;;;19.50;8.10;;;8.10;72.40;;;;;;2370561;53;20938;-74
2022/12/02 06:50:45;;;;;;;25.52;9.32;;;8.00;72.30;;;;;;2386980;52;20898;-72
2022/12/02 06:53:24;;;;;;;22.30;9.05;;;8.00;72.40;;;;;;2370567;54;21005;-73
2022/12/02 06:55:53;;;;;;;20.00;9.40;;;8.00;72.30;;;;;;2623211;52;21947;-76
2022/12/02 06:58:36;;;;;;;21.30;9.80;;;8.00;72.30;;;;;;2370843;54;20997;-74
2022/12/02 07:01:37;;;;;;;18.58;8.25;;;8.00;72.10;;;;;;2370768;54;20979;-74
2022/12/02 07:04:20;;;;;;;21.70;8.68;;;8.00;72.20;;;;;;2371368;54;20946;-73
2022/12/02 07:06:51;;;;;;;15.90;7.35;;;8.00;72.30;;;;;;2489767;52;20971;-75
2022/12/02 07:09:37;;;;;;;16.25;7.50;;;8.00;72.30;;;;;;2352015;53;20899;-75
2022/12/02 07:12:17;;;;;;;15.07;7.18;;;8.00;72.20;;;;;;2401448;52;20961;-72
2022/12/02 07:14:52;;;;;;;18.55;7.78;;;8.00;72.50;;;;;;2622973;52;21042;-73
2022/12/02 07:17:22;;;;;;;15.68;7.62;;;7.90;72.30;;;;;;2623246;52;20989;-75
2022/12/02 07:23:23;;;;;;;18.12;7.70;;;7.90;72.40;;;;;;2370924;54;20910;-76
2022/12/02 07:25:50;;;;;;;15.82;6.18;;;7.90;72.50;;;;;;2426876;52;20918;-73
2022/12/02 07:28:50;;;;;;;19.35;7.68;;;8.00;72.50;;;;;;2370816;53;20973;-74
2022/12/02 07:31:28;;;;;;;15.45;7.65;;;8.00;72.20;;;;;;2429718;52;21443;-74
2022/12/02 07:33:55;;;;;;;13.95;6.68;;;7.90;72.50;;;;;;2363982;53;21036;-74
2022/12/02 07:36:22;;;;;;;19.65;8.75;;;7.90;72.60;;;;;;2522626;52;21081;-74
2022/12/02 07:38:48;;;;;;;17.40;8.23;;;7.90;72.60;;;;;;2370604;54;20970;-76
2022/12/02 07:41:32;;;;;;;;;;;7.90;72.70;;;;;;2627056;52;21911;-72
2022/12/02 07:44:02;;;;;;;17.60;7.65;;;7.90;72.00;;;;;;2608769;52;20070;-73
2022/12/02 07:46:29;;;;;;;20.10;7.65;;;7.90;72.70;;;;;;2356696;54;20956;-76
2022/12/02 07:48:55;;;;;;;18.85;7.97;;;8.00;72.70;;;;;;2334425;53;20903;-74
2022/12/02 07:51:25;;;;;;;20.00;7.75;;;7.90;72.70;;;;;;2623179;52;20942;-74
2022/12/02 07:53:51;;;;;;;17.52;7.75;;;7.90;73.40;;;;;;2464086;52;21859;-73
2022/12/02 07:56:20;;;;;;;17.67;7.60;;;7.90;72.70;;;;;;2370784;54;20938;-72
2022/12/02 07:58:50;;;;;;;22.30;9.38;;;7.90;72.80;;;;;;2369569;54;21053;-73
2022/12/02 08:01:47;;;;;;;16.73;7.50;;;8.00;72.90;;;;;;2623085;52;21006;-73
2022/12/02 08:04:16;;;;;;;21.55;9.32;;;7.90;72.70;;;;;;2370870;54;20910;-75
2022/12/02 08:06:43;;;;;;;19.62;9.50;;;7.90;72.70;;;;;;2444329;52;21041;-74
2022/12/02 08:09:09;;;;;;;16.45;7.15;;;7.90;72.70;;;;;;2623056;52;21002;-74
2022/12/02 08:11:36;;;;;;;20.30;8.73;;;8.00;72.90;;;;;;2370114;54;20987;-77
2022/12/02 08:14:03;;;;;;;20.58;8.00;;;7.90;72.90;;;;;;2623501;52;21002;-73
2022/12/02 08:16:30;;;;;;;17.23;8.60;;;8.00;73.00;;;;;;2623409;52;20985;-73
2022/12/02 08:18:56;;;;;;;19.30;7.95;;;8.00;72.80;;;;;;2595517;52;21022;-75
2022/12/02 08:21:23;;;;;;;17.10;8.57;;;8.00;72.80;;;;;;2350304;54;21057;-74
2022/12/02 08:23:52;;;;;;;18.23;8.68;;;8.00;72.80;;;;;;2485688;52;20934;-72
2022/12/02 08:26:18;;;;;;;20.70;8.18;;;8.00;72.90;;;;;;2371344;53;20994;-77
2022/12/02 08:28:45;;;;;;;17.85;7.55;;;8.00;73.00;;;;;;2387923;52;20943;-76
2022/12/02 08:31:13;;;;;;;20.62;8.77;;;8.00;73.00;;;;;;2365640;53;21023;-73
2022/12/02 08:33:40;;;;;;;17.48;7.82;;;8.00;73.00;;;;;;2514372;53;20957;-72
2022/12/02 08:36:10;;;;;;;21.23;9.38;;;8.10;73.10;;;;;;2365680;54;21070;-76
2022/12/02 08:38:37;;;;;;;20.40;8.48;;;8.00;73.00;;;;;;2570505;52;21988;-73
2022/12/02 08:41:03;;;;;;;20.02;8.55;;;8.10;73.20;;;;;;2415568;52;20925;-72
2022/12/02 08:43:31;;;;;;;17.67;7.85;;;8.10;73.10;;;;;;2622550;52;21002;-72
2022/12/02 08:45:59;;;;;;;22.52;8.68;;;8.10;73.10;;;;;;2370586;54;20918;-74
2022/12/02 08:48:25;;;;;;;27.37;10.38;;;8.10;73.10;;;;;;2580016;52;20981;-74
2022/12/02 08:50:53;;;;;;;21.00;9.50;;;8.10;73.00;;;;;;2370964;54;20985;-76
2022/12/02 08:53:20;;;;;;;20.12;8.82;;;8.10;72.90;;;;;;2412042;52;20993;-75
2022/12/02 08:55:47;;;;;;;17.05;7.45;;;8.10;72.90;;;;;;2370499;54;20937;-73
2022/12/02 08:58:14;;;;;;;17.75;7.90;;;8.10;72.90;;;;;;2401024;52;21799;-73
2022/12/02 09:00:40;;;;;;;19.25;8.65;;;8.10;72.90;;;;;;2370735;53;20926;-75
2022/12/02 09:03:07;;;;;;;20.75;8.48;;;8.10;72.90;;;;;;2623274;52;21717;-75
2022/12/02 09:05:34;;;;;;;22.17;9.57;;;8.10;72.90;;;;;;2620717;52;20927;-73
2022/12/02 09:08:01;;;;;;;20.52;8.45;;;8.10;72.90;;;;;;2596681;52;20966;-75
2022/12/02 09:10:28;;;;;;;18.73;8.75;;;8.10;72.90;;;;;;2370429;54;20907;-73
2022/12/02 09:12:56;;;;;;;21.23;9.05;;;8.20;73.70;;;;;;2557482;52;20974;-73
2022/12/02 09:15:23;;;;;;;20.45;8.75;;;8.10;72.90;;;;;;2370627;54;21112;-73
2022/12/02 09:17:49;;;;;;;19.98;8.43;;;8.10;72.90;;;;;;2383767;52;20941;-73
2022/12/02 09:20:18;;;;;;;20.62;9.57;;;8.10;73.00;;;;;;2443124;52;20933;-76
2022/12/02 09:22:44;;;;;;;21.98;9.20;;;8.20;73.10;;;;;;2369868;53;21483;-76
2022/12/02 09:25:11;;;;;;;19.48;8.52;;;8.20;73.10;;;;;;2623701;52;21008;-71
2022/12/02 09:27:37;;;;;;;21.92;9.35;;;8.20;73.10;;;;;;2538870;52;21021;-76
2022/12/02 09:30:06;;;;;;;18.80;8.32;;;8.20;73.10;;;;;;2370367;53;21845;-72
2022/12/02 09:32:33;;;;;;;20.95;8.60;;;8.20;73.10;;;;;;2622759;52;21002;-73
2022/12/02 09:34:59;;;;;;;18.85;8.15;;;8.20;73.20;;;;;;2369798;54;20993;-76
2022/12/02 09:37:29;;;;;;;20.77;9.60;;;8.20;73.90;;;;;;2609375;52;21361;-74
2022/12/02 09:39:55;;;;;;;21.15;9.07;;;8.30;73.30;;;;;;2370438;54;20890;-75
2022/12/02 09:42:21;;;;;;;27.60;10.80;;;8.30;73.20;;;;;;2433529;52;20946;-72
2022/12/02 09:44:48;;;;;;;20.45;8.95;;;8.30;73.00;;;;;;2365410;54;21518;-72
2022/12/02 09:47:18;;;;;;;23.90;9.68;;;8.30;72.90;;;;;;2485221;52;20954;-75
2022/12/02 09:49:44;;;;;;;21.33;9.75;;;8.30;72.80;;;;;;2370787;54;21313;-74
2022/12/02 09:52:19;;;;;;;21.50;9.32;;;8.30;72.80;;;;;;2612358;52;21002;-71
2022/12/02 09:54:48;;;;;;;23.98;10.02;;;8.30;72.80;;;;;;2350596;54;20962;-74
2022/12/02 09:57:16;;;;;;;22.98;10.60;;;8.30;72.80;;;;;;2551361;52;20937;-71
2022/12/02 09:59:44;;;;;;;20.12;8.77;;;8.30;72.80;;;;;;2623365;52;21880;-76
2022/12/02 10:02:56;;;;;;;17.75;8.18;;;8.30;72.80;;;;;;2623462;52;20934;-77
2022/12/02 10:05:24;;;;;;;20.15;8.23;;;8.30;72.40;;;;;;2370778;53;20914;-72
2022/12/02 10:07:51;;;;;;;19.83;8.80;;;8.30;72.90;;;;;;2385293;52;21334;-73
2022/12/02 10:10:19;;;;;;;22.45;9.45;;;8.30;72.90;;;;;;2370555;54;20958;-75
2022/12/02 10:12:45;;;;;;;26.23;10.15;;;8.30;72.90;;;;;;2444444;52;20946;-72
2022/12/02 10:15:26;;;;;;;21.45;10.18;;;8.30;72.90;;;;;;2349449;54;21798;-73
2022/12/02 10:17:52;;;;;;;23.40;10.48;;;8.30;72.60;;;;;;2485000;52;20930;-74
2022/12/02 10:20:21;;;;;;;23.20;9.43;;;8.30;72.70;;;;;;2370632;54;20961;-72
2022/12/02 10:23:11;;;;;;;21.30;8.88;;;8.30;72.80;;;;;;2501845;52;20914;-72
2022/12/02 10:25:39;;;;;;;21.75;9.20;;;8.30;72.70;;;;;;2370522;53;20926;-73
2022/12/02 10:28:24;;;;;;;23.95;10.18;;;8.30;73.00;;;;;;2462373;52;21777;-77
2022/12/02 10:30:56;;;;;;;21.23;9.02;;;8.30;72.90;;;;;;2623044;52;20920;-77
2022/12/02 10:33:27;;;;;;;22.20;9.70;;;8.30;73.00;;;;;;2539415;52;20910;-76
2022/12/02 10:35:53;;;;;;;20.05;9.55;;;8.30;72.90;;;;;;2370704;54;21073;-74
2022/12/02 10:38:44;;;;;;;21.87;9.18;;;8.30;72.90;;;;;;2623065;52;20942;-74
2022/12/02 10:41:23;;;;;;;19.75;9.30;;;8.30;72.60;;;;;;2371561;53;20981;-74
2022/12/02 10:44:11;;;;;;;20.40;8.32;;;8.30;72.70;;;;;;2577682;52;20929;-73
2022/12/02 10:46:38;;;;;;;17.60;7.68;;;8.40;73.60;;;;;;2372932;53;20938;-74
2022/12/02 10:49:28;;;;;;;17.62;7.85;;;8.30;73.10;;;;;;2348140;53;20978;-75
2022/12/02 10:51:55;;;;;;;19.30;8.35;;;8.40;72.80;;;;;;2370104;53;20997;-75
2022/12/02 10:54:27;;;;;;;20.17;8.57;;;8.40;73.00;;;;;;2435517;52;20953;-75
2022/12/02 10:56:54;;;;;;;;;;;8.40;73.00;;;;;;2374483;54;22034;-72
2022/12/02 10:59:21;;;;;;;18.65;6.95;;;8.40;72.30;;;;;;2623317;52;20050;-75
2022/12/02 11:01:48;;;;;;;16.45;6.22;;;8.40;73.00;;;;;;2570770;52;21043;-73
2022/12/02 11:04:15;;;;;;;28.15;8.80;;;8.40;73.00;;;;;;2500275;52;21010;-76
2022/12/02 11:06:42;;;;;;;17.98;7.47;;;8.40;73.00;;;;;;2369993;54;21792;-72
2022/12/02 11:09:27;;;;;;;20.60;8.73;;;8.40;73.20;;;;;;2564159;52;21463;-71
2022/12/02 11:12:35;;;;;;;17.85;7.75;;;8.40;73.00;;;;;;2370744;54;20946;-73
2022/12/02 11:15:04;;;;;;;18.17;7.32;;;8.50;72.90;;;;;;2438677;52;20931;-75
2022/12/02 11:20:28;;;;;;;16.17;7.28;;;8.50;73.30;;;;;;2350430;54;20989;-76
2022/12/02 11:23:23;;;;;;;16.85;6.35;;;8.60;72.70;;;;;;2472346;52;20984;-74
2022/12/02 11:25:55;;;;;;;17.60;6.90;;;8.60;73.10;;;;;;2370817;54;20964;-74
2022/12/02 11:30:43;;;;;;;15.75;7.10;;;8.60;73.10;;;;;;2380985;52;21049;-73
2022/12/02 11:33:13;;;;;;;16.15;6.57;;;8.60;72.60;;;;;;2449936;52;21533;-76
2022/12/02 11:36:58;;;;;;;16.85;7.78;;;8.60;73.40;;;;;;2381061;52;20946;-74
2022/12/02 11:39:40;;;;;;;16.98;6.12;;;8.70;73.40;;;;;;2371067;54;20933;-74
2022/12/02 11:42:52;;;;;;;16.65;7.62;;;8.70;73.50;;;;;;2564274;52;20942;-73
2022/12/02 11:46:04;;;;;;;20.73;8.73;;;8.70;73.10;;;;;;2371284;53;21033;-73
2022/12/02 11:48:33;;;;;;;17.10;7.53;;;8.80;73.00;;;;;;2471889;52;20925;-74
2022/12/02 11:51:00;;;;;;;19.70;7.65;;;8.80;73.40;;;;;;2487474;52;20914;-74
2022/12/02 11:53:27;;;;;;;15.45;6.80;;;8.80;73.30;;;;;;2623219;52;21368;-76
2022/12/02 11:55:54;;;;;;;18.17;8.23;;;8.90;73.30;;;;;;2370528;54;20930;-75
2022/12/02 11:58:28;;;;;;;17.00;8.35;;;8.80;73.10;;;;;;2494288;52;20937;-73
2022/12/02 12:01:17;;;;;;;18.50;7.85;;;8.90;72.90;;;;;;2370216;53;20973;-74
2022/12/02 12:03:48;;;;;;;16.05;7.45;;;8.80;72.70;;;;;;2398076;52;20937;-75
2022/12/02 12:06:25;;;;;;;18.20;8.40;;;8.80;72.90;;;;;;2370516;54;21434;-75
2022/12/02 12:08:54;;;;;;;20.58;8.93;;;8.80;72.70;;;;;;2623177;52;20962;-74
2022/12/02 12:11:35;;;;;;;16.12;8.32;;;8.80;72.80;;;;;;2495085;52;21894;-72
2022/12/02 12:14:40;;;;;;;18.50;8.40;;;8.80;72.70;;;;;;2595246;52;20988;-73
2022/12/02 12:17:17;;;;;;;19.52;7.43;;;8.80;72.70;;;;;;2370912;54;20966;-74
2022/12/02 12:19:44;;;;;;;15.45;7.40;;;8.80;72.60;;;;;;2622796;52;21001;-75
2022/12/02 12:22:28;;;;;;;17.77;8.23;;;8.80;72.80;;;;;;2370979;53;20946;-75
2022/12/02 12:25:41;;;;;;;17.48;8.73;;;8.80;72.50;;;;;;2540248;52;20994;-72
2022/12/02 12:28:27;;;;;;;18.83;8.17;;;8.80;72.30;;;;;;2343902;53;21497;-73
2022/12/02 12:30:53;;;;;;;19.92;8.00;;;8.80;72.60;;;;;;2512191;53;21334;-73
2022/12/02 12:33:20;;;;;;;19.10;8.65;;;8.80;72.90;;;;;;2587951;53;21008;-73
2022/12/02 12:35:48;;;;;;;17.77;8.40;;;8.80;72.90;;;;;;2358002;53;21442;-73
2022/12/02 12:38:17;;;;;;;18.17;8.63;;;8.80;72.90;;;;;;2342829;53;20934;-74
2022/12/02 12:40:45;;;;;;;15.98;7.28;;;8.80;72.80;;;;;;2528308;53;21000;-74
2022/12/02 12:43:12;;;;;;;17.62;8.38;;;8.80;72.90;;;;;;2342281;53;20992;-72
2022/12/02 12:45:38;;;;;;;16.58;8.10;;;8.80;72.90;;;;;;2342618;53;20960;-75
2022/12/02 12:48:05;;;;;;;18.30;8.30;;;8.80;72.80;;;;;;2363528;53;20985;-75
2022/12/02 12:50:32;;;;;;;20.25;9.82;;;8.80;72.60;;;;;;2346151;53;21008;-75
2022/12/02 12:52:59;;;;;;;19.90;9.32;;;8.80;72.50;;;;;;2363910;53;21026;-75
2022/12/02 12:55:25;;;;;;;18.25;8.85;;;8.80;72.40;;;;;;2594146;52;20994;-74
2022/12/02 12:57:57;;;;;;;18.60;9.07;;;8.80;72.40;;;;;;2347250;54;20966;-73
2022/12/02 13:00:23;;;;;;;18.67;9.25;;;8.80;72.30;;;;;;2527741;52;21043;-75
2022/12/02 13:02:50;;;;;;;15.95;7.85;;;8.80;72.40;;;;;;2357255;54;20953;-76
2022/12/02 13:05:16;;;;;;;17.33;8.25;;;8.80;72.50;;;;;;2330007;54;21020;-74
2022/12/02 13:07:43;;;;;;;17.58;8.40;;;8.70;72.40;;;;;;2370613;54;20959;-73
2022/12/02 13:10:10;;;;;;;20.42;9.65;;;8.70;72.40;;;;;;2388306;54;20929;-71
2022/12/02 13:12:38;;;;;;;18.80;8.95;;;8.70;72.40;;;;;;2342432;53;20972;-76
2022/12/02 13:15:04;;;;;;;20.77;8.90;;;8.70;72.40;;;;;;2342898;53;20944;-73
2022/12/02 13:17:31;;;;;;;20.48;9.25;;;8.70;72.40;;;;;;2341061;54;20920;-73
2022/12/02 13:19:57;;;;;;;17.25;8.77;;;8.70;72.50;;;;;;2454254;52;21023;-74
2022/12/02 13:22:24;;;;;;;18.45;7.95;;;8.70;72.40;;;;;;2363045;54;21015;-75